createdAt,value
2017-08-14T00:00:33.380Z,0
2017-08-14T00:01:33.724Z,0
2017-08-14T00:02:33.537Z,0
2017-08-14T00:03:33.131Z,0
2017-08-14T00:04:33.560Z,0
2017-08-14T00:05:33.559Z,0
2017-08-14T00:06:33.868Z,0
2017-08-14T00:07:33.640Z,0
2017-08-14T00:08:33.568Z,0
2017-08-14T00:09:34.028Z,0
2017-08-14T00:10:33.920Z,0
2017-08-14T00:11:33.947Z,0
2017-08-14T00:12:33.731Z,0
2017-08-14T00:13:33.983Z,0
2017-08-14T00:14:34.010Z,0
2017-08-14T00:15:33.399Z,0
2017-08-14T00:16:33.735Z,0
2017-08-14T00:17:34.073Z,0
2017-08-14T00:18:34.099Z,0
2017-08-14T00:19:34.116Z,0
2017-08-14T00:20:34.134Z,0
2017-08-14T00:21:33.871Z,0
2017-08-14T00:22:34.190Z,0
2017-08-14T00:23:33.890Z,0
2017-08-14T00:24:34.224Z,0
2017-08-14T00:25:34.248Z,0
2017-08-14T00:26:34.269Z,0
2017-08-14T00:27:34.296Z,0
2017-08-14T00:28:34.313Z,0
2017-08-14T00:29:34.031Z,0
2017-08-14T00:30:34.353Z,0
2017-08-14T00:31:34.456Z,0
2017-08-14T00:32:34.094Z,0
2017-08-14T00:33:34.110Z,0
2017-08-14T00:34:34.134Z,0
2017-08-14T00:35:34.466Z,0
2017-08-14T00:36:34.486Z,0
2017-08-14T00:37:34.512Z,0
2017-08-14T00:38:34.537Z,0
2017-08-14T00:39:34.248Z,0
2017-08-14T00:40:34.587Z,0
2017-08-14T00:41:34.286Z,0
2017-08-14T00:42:33.992Z,0
2017-08-14T00:43:34.649Z,0
2017-08-14T00:44:34.353Z,0
2017-08-14T00:45:34.376Z,0
2017-08-14T00:46:34.395Z,0
2017-08-14T00:47:34.733Z,0
2017-08-14T00:48:34.758Z,0
2017-08-14T00:49:34.460Z,0
2017-08-14T00:50:34.798Z,0
2017-08-14T00:51:34.832Z,0
2017-08-14T00:52:34.554Z,0
2017-08-14T00:53:34.551Z,0
2017-08-14T00:54:34.886Z,0
2017-08-14T00:55:34.596Z,0
2017-08-14T00:56:34.933Z,0
2017-08-14T00:57:34.952Z,0
2017-08-14T00:58:34.976Z,0
2017-08-14T00:59:35.012Z,0
2017-08-14T01:00:35.015Z,0
2017-08-14T01:01:35.044Z,0
2017-08-14T01:02:35.064Z,0
2017-08-14T01:03:35.080Z,0
2017-08-14T01:04:34.790Z,0
2017-08-14T01:05:34.815Z,0
2017-08-14T01:06:35.143Z,0
2017-08-14T01:07:35.170Z,0
2017-08-14T01:08:35.197Z,0
2017-08-14T01:09:34.582Z,0
2017-08-14T01:10:34.609Z,0
2017-08-14T01:11:35.264Z,0
2017-08-14T01:12:34.963Z,0
2017-08-14T01:13:34.982Z,0
2017-08-14T01:14:35.328Z,0
2017-08-14T01:15:35.027Z,0
2017-08-14T01:16:34.735Z,0
2017-08-14T01:17:35.390Z,0
2017-08-14T01:18:35.419Z,0
2017-08-14T01:19:35.431Z,0
2017-08-14T01:20:35.568Z,0
2017-08-14T01:21:35.566Z,0
2017-08-14T01:22:35.590Z,0
2017-08-14T01:23:35.591Z,0
2017-08-14T01:24:35.589Z,0
2017-08-14T01:25:35.589Z,0
2017-08-14T01:26:35.264Z,0
2017-08-14T01:27:35.286Z,0
2017-08-14T01:28:35.734Z,0
2017-08-14T01:29:35.754Z,0
2017-08-14T01:30:35.802Z,0
2017-08-14T01:31:35.811Z,0
2017-08-14T01:32:36.004Z,0
2017-08-14T01:33:35.830Z,0
2017-08-14T01:34:35.964Z,0
2017-08-14T01:35:35.952Z,0
2017-08-14T01:36:36.084Z,0
2017-08-14T01:37:35.634Z,0
2017-08-14T01:38:35.948Z,0
2017-08-14T01:39:35.653Z,0
2017-08-14T01:40:35.661Z,0
2017-08-14T01:41:35.660Z,0
2017-08-14T01:42:35.664Z,0
2017-08-14T01:43:35.657Z,0
2017-08-14T01:44:35.779Z,0
2017-08-14T01:45:36.089Z,0
2017-08-14T01:46:36.145Z,0
2017-08-14T01:47:36.137Z,0
2017-08-14T01:48:35.951Z,0
2017-08-14T01:49:35.955Z,0
2017-08-14T01:50:36.163Z,0
2017-08-14T01:51:36.160Z,0
2017-08-14T01:52:36.170Z,0
2017-08-14T01:53:36.167Z,0
2017-08-14T01:54:36.396Z,0
2017-08-14T01:55:35.664Z,0
2017-08-14T01:56:36.230Z,0
2017-08-14T01:57:36.244Z,0
2017-08-14T01:58:36.269Z,0
2017-08-14T01:59:36.288Z,0
2017-08-14T02:00:36.314Z,0
2017-08-14T02:01:36.340Z,0
2017-08-14T02:02:36.354Z,0
2017-08-14T02:03:36.376Z,0
2017-08-14T02:04:36.401Z,0
2017-08-14T02:05:36.428Z,0
2017-08-14T02:06:36.444Z,0
2017-08-14T02:07:36.461Z,0
2017-08-14T02:08:36.483Z,0
2017-08-14T02:09:36.199Z,0
2017-08-14T02:10:36.525Z,0
2017-08-14T02:11:36.233Z,0
2017-08-14T02:12:36.564Z,0
2017-08-14T02:13:36.592Z,0
2017-08-14T02:14:36.628Z,0
2017-08-14T02:15:36.636Z,0
2017-08-14T02:16:36.907Z,0
2017-08-14T02:17:36.669Z,0
2017-08-14T02:18:36.381Z,0
2017-08-14T02:19:36.731Z,0
2017-08-14T02:20:36.733Z,0
2017-08-14T02:21:36.755Z,0
2017-08-14T02:22:36.778Z,0
2017-08-14T02:23:36.800Z,0
2017-08-14T02:24:36.821Z,0
2017-08-14T02:25:36.528Z,0
2017-08-14T02:26:36.871Z,0
2017-08-14T02:27:36.567Z,0
2017-08-14T02:28:36.726Z,0
2017-08-14T02:29:37.038Z,0
2017-08-14T02:30:37.040Z,0
2017-08-14T02:31:37.036Z,0
2017-08-14T02:32:37.085Z,0
2017-08-14T02:33:36.811Z,0
2017-08-14T02:34:37.107Z,0
2017-08-14T02:35:37.131Z,0
2017-08-14T02:36:36.812Z,0
2017-08-14T02:37:37.147Z,0
2017-08-14T02:38:37.227Z,0
2017-08-14T02:39:37.141Z,0
2017-08-14T02:40:37.192Z,0
2017-08-14T02:41:37.062Z,0
2017-08-14T02:42:37.205Z,0
2017-08-14T02:43:37.221Z,0
2017-08-14T02:44:37.285Z,0
2017-08-14T02:45:37.267Z,0
2017-08-14T02:46:37.283Z,0
2017-08-14T02:47:37.317Z,0
2017-08-14T02:48:37.108Z,0
2017-08-14T02:49:37.106Z,0
2017-08-14T02:50:37.374Z,0
2017-08-14T02:51:37.399Z,0
2017-08-14T02:52:37.413Z,0
2017-08-14T02:53:37.442Z,0
2017-08-14T02:54:37.459Z,0
2017-08-14T02:55:37.471Z,0
2017-08-14T02:56:37.192Z,0
2017-08-14T02:57:37.518Z,0
2017-08-14T02:58:37.540Z,0
2017-08-14T02:59:37.557Z,0
2017-08-14T03:00:37.266Z,0
2017-08-14T03:01:37.284Z,0
2017-08-14T03:02:37.622Z,0
2017-08-14T03:03:37.646Z,0
2017-08-14T03:04:37.659Z,0
2017-08-14T03:05:37.687Z,0
2017-08-14T03:06:37.723Z,0
2017-08-14T03:07:37.412Z,0
2017-08-14T03:08:37.746Z,0
2017-08-14T03:09:37.769Z,0
2017-08-14T03:10:37.787Z,0
2017-08-14T03:11:37.805Z,0
2017-08-14T03:12:37.829Z,0
2017-08-14T03:13:37.219Z,0
2017-08-14T03:14:37.558Z,0
2017-08-14T03:15:37.579Z,0
2017-08-14T03:16:37.913Z,0
2017-08-14T03:17:37.477Z,0
2017-08-14T03:18:37.959Z,0
2017-08-14T03:19:37.691Z,0
2017-08-14T03:20:37.999Z,0
2017-08-14T03:21:38.017Z,0
2017-08-14T03:22:38.038Z,0
2017-08-14T03:23:38.070Z,0
2017-08-14T03:24:38.078Z,0
2017-08-14T03:25:38.101Z,0
2017-08-14T03:26:38.117Z,0
2017-08-14T03:27:38.137Z,0
2017-08-14T03:28:38.185Z,0
2017-08-14T03:29:38.181Z,0
2017-08-14T03:30:38.245Z,0
2017-08-14T03:31:38.236Z,0
2017-08-14T03:32:38.241Z,0
2017-08-14T03:33:38.500Z,4
2017-08-14T03:34:38.287Z,4
2017-08-14T03:35:38.309Z,0
2017-08-14T03:36:38.327Z,0
2017-08-14T03:37:38.347Z,4
2017-08-14T03:38:38.374Z,4
2017-08-14T03:39:38.496Z,8
2017-08-14T03:40:38.412Z,4
2017-08-14T03:41:38.136Z,8
2017-08-14T03:42:38.455Z,4
2017-08-14T03:43:38.486Z,8
2017-08-14T03:44:38.491Z,8
2017-08-14T03:45:38.509Z,8
2017-08-14T03:46:38.544Z,12
2017-08-14T03:47:37.924Z,12
2017-08-14T03:48:38.575Z,16
2017-08-14T03:49:38.601Z,16
2017-08-14T03:50:37.988Z,16
2017-08-14T03:51:38.328Z,20
2017-08-14T03:52:38.664Z,20
2017-08-14T03:53:38.682Z,20
2017-08-14T03:54:38.405Z,20
2017-08-14T03:55:38.408Z,28
2017-08-14T03:56:38.427Z,28
2017-08-14T03:57:38.758Z,28
2017-08-14T03:58:38.499Z,32
2017-08-14T03:59:38.805Z,36
2017-08-14T04:00:38.510Z,36
2017-08-14T04:01:39.138Z,40
2017-08-14T04:02:38.862Z,44
2017-08-14T04:03:38.885Z,44
2017-08-14T04:04:38.901Z,48
2017-08-14T04:05:39.040Z,52
2017-08-14T04:06:38.633Z,56
2017-08-14T04:07:39.092Z,56
2017-08-14T04:08:39.081Z,60
2017-08-14T04:09:39.266Z,64
2017-08-14T04:10:39.286Z,68
2017-08-14T04:11:39.138Z,72
2017-08-14T04:12:38.869Z,72
2017-08-14T04:13:38.780Z,76
2017-08-14T04:14:39.204Z,80
2017-08-14T04:15:39.224Z,84
2017-08-14T04:16:39.071Z,88
2017-08-14T04:17:39.271Z,92
2017-08-14T04:18:38.983Z,96
2017-08-14T04:19:39.299Z,100
2017-08-14T04:20:39.327Z,100
2017-08-14T04:21:39.348Z,104
2017-08-14T04:22:39.524Z,108
2017-08-14T04:23:39.236Z,116
2017-08-14T04:24:39.528Z,116
2017-08-14T04:25:39.541Z,120
2017-08-14T04:26:39.287Z,124
2017-08-14T04:27:39.546Z,128
2017-08-14T04:28:39.215Z,132
2017-08-14T04:29:39.220Z,136
2017-08-14T04:30:39.534Z,136
2017-08-14T04:31:39.539Z,140
2017-08-14T04:32:39.674Z,140
2017-08-14T04:33:39.588Z,148
2017-08-14T04:34:39.533Z,148
2017-08-14T04:35:39.767Z,152
2017-08-14T04:36:39.563Z,156
2017-08-14T04:37:38.948Z,156
2017-08-14T04:38:39.599Z,160
2017-08-14T04:39:39.620Z,164
2017-08-14T04:40:39.639Z,164
2017-08-14T04:41:39.344Z,168
2017-08-14T04:42:39.679Z,172
2017-08-14T04:43:39.705Z,172
2017-08-14T04:44:39.722Z,176
2017-08-14T04:45:39.741Z,180
2017-08-14T04:46:39.758Z,180
2017-08-14T04:47:39.787Z,184
2017-08-14T04:48:39.802Z,188
2017-08-14T04:49:39.826Z,188
2017-08-14T04:50:39.845Z,192
2017-08-14T04:51:39.869Z,192
2017-08-14T04:52:39.892Z,200
2017-08-14T04:53:39.908Z,200
2017-08-14T04:54:39.610Z,200
2017-08-14T04:55:39.958Z,204
2017-08-14T04:56:39.962Z,208
2017-08-14T04:57:39.990Z,208
2017-08-14T04:58:39.690Z,212
2017-08-14T04:59:40.032Z,212
2017-08-14T05:00:39.754Z,216
2017-08-14T05:01:39.435Z,212
2017-08-14T05:02:39.773Z,216
2017-08-14T05:03:39.885Z,220
2017-08-14T05:04:40.237Z,220
2017-08-14T05:05:40.347Z,224
2017-08-14T05:06:40.055Z,224
2017-08-14T05:07:39.887Z,228
2017-08-14T05:08:40.351Z,232
2017-08-14T05:09:40.344Z,232
2017-08-14T05:10:40.353Z,236
2017-08-14T05:11:40.370Z,232
2017-08-14T05:12:40.396Z,240
2017-08-14T05:13:39.997Z,240
2017-08-14T05:14:40.013Z,244
2017-08-14T05:15:40.037Z,244
2017-08-14T05:16:40.373Z,248
2017-08-14T05:17:40.425Z,248
2017-08-14T05:18:40.099Z,248
2017-08-14T05:19:40.437Z,252
2017-08-14T05:20:40.447Z,252
2017-08-14T05:21:40.470Z,252
2017-08-14T05:22:40.491Z,256
2017-08-14T05:23:40.876Z,260
2017-08-14T05:24:40.534Z,260
2017-08-14T05:25:40.556Z,260
2017-08-14T05:26:40.748Z,264
2017-08-14T05:27:40.723Z,264
2017-08-14T05:28:40.730Z,272
2017-08-14T05:29:40.638Z,272
2017-08-14T05:30:40.061Z,268
2017-08-14T05:31:40.672Z,272
2017-08-14T05:32:40.694Z,272
2017-08-14T05:33:40.711Z,272
2017-08-14T05:34:40.504Z,272
2017-08-14T05:35:41.036Z,276
2017-08-14T05:36:41.336Z,276
2017-08-14T05:37:41.165Z,276
2017-08-14T05:38:41.232Z,280
2017-08-14T05:39:41.243Z,276
2017-08-14T05:40:40.772Z,280
2017-08-14T05:41:40.947Z,280
2017-08-14T05:42:40.895Z,280
2017-08-14T05:43:40.911Z,284
2017-08-14T05:44:40.935Z,284
2017-08-14T05:45:41.083Z,288
2017-08-14T05:46:40.674Z,284
2017-08-14T05:47:40.681Z,284
2017-08-14T05:48:40.888Z,284
2017-08-14T05:49:40.721Z,288
2017-08-14T05:50:40.456Z,288
2017-08-14T05:51:40.823Z,288
2017-08-14T05:52:41.232Z,292
2017-08-14T05:53:40.803Z,288
2017-08-14T05:54:41.349Z,288
2017-08-14T05:55:41.156Z,292
2017-08-14T05:56:40.861Z,292
2017-08-14T05:57:41.353Z,292
2017-08-14T05:58:41.216Z,292
2017-08-14T05:59:40.793Z,296
2017-08-14T06:00:41.107Z,296
2017-08-14T06:01:40.964Z,292
2017-08-14T06:02:41.297Z,296
2017-08-14T06:03:41.054Z,296
2017-08-14T06:04:41.025Z,296
2017-08-14T06:05:41.358Z,296
2017-08-14T06:06:41.205Z,300
2017-08-14T06:07:41.393Z,300
2017-08-14T06:08:41.243Z,300
2017-08-14T06:09:41.456Z,300
2017-08-14T06:10:40.989Z,300
2017-08-14T06:11:40.994Z,304
2017-08-14T06:12:41.505Z,304
2017-08-14T06:13:41.212Z,304
2017-08-14T06:14:41.583Z,304
2017-08-14T06:15:41.333Z,304
2017-08-14T06:16:41.637Z,304
2017-08-14T06:17:40.971Z,308
2017-08-14T06:18:41.639Z,308
2017-08-14T06:19:41.416Z,308
2017-08-14T06:20:41.362Z,308
2017-08-14T06:21:41.682Z,312
2017-08-14T06:22:41.391Z,312
2017-08-14T06:23:41.408Z,312
2017-08-14T06:24:41.750Z,312
2017-08-14T06:25:41.768Z,312
2017-08-14T06:26:41.478Z,316
2017-08-14T06:27:41.803Z,316
2017-08-14T06:28:41.835Z,316
2017-08-14T06:29:41.844Z,312
2017-08-14T06:30:41.862Z,316
2017-08-14T06:31:41.886Z,316
2017-08-14T06:32:41.904Z,316
2017-08-14T06:33:41.934Z,320
2017-08-14T06:34:41.953Z,320
2017-08-14T06:35:41.967Z,320
2017-08-14T06:36:41.677Z,320
2017-08-14T06:37:42.012Z,320
2017-08-14T06:38:42.025Z,324
2017-08-14T06:39:41.734Z,324
2017-08-14T06:40:41.764Z,328
2017-08-14T06:41:42.098Z,328
2017-08-14T06:42:42.108Z,328
2017-08-14T06:43:42.125Z,328
2017-08-14T06:44:42.156Z,332
2017-08-14T06:45:42.168Z,328
2017-08-14T06:46:42.191Z,332
2017-08-14T06:47:42.209Z,336
2017-08-14T06:48:42.241Z,336
2017-08-14T06:49:42.250Z,332
2017-08-14T06:50:41.952Z,340
2017-08-14T06:51:42.294Z,336
2017-08-14T06:52:42.307Z,336
2017-08-14T06:53:42.056Z,344
2017-08-14T06:54:41.727Z,340
2017-08-14T06:55:42.376Z,340
2017-08-14T06:56:42.390Z,340
2017-08-14T06:57:42.099Z,344
2017-08-14T06:58:42.120Z,344
2017-08-14T06:59:42.140Z,352
2017-08-14T07:00:42.164Z,352
2017-08-14T07:01:42.189Z,352
2017-08-14T07:02:42.544Z,356
2017-08-14T07:03:42.224Z,364
2017-08-14T07:04:42.246Z,356
2017-08-14T07:05:41.951Z,360
2017-08-14T07:06:42.290Z,356
2017-08-14T07:07:42.310Z,356
2017-08-14T07:08:42.651Z,360
2017-08-14T07:09:42.662Z,360
2017-08-14T07:10:42.368Z,364
2017-08-14T07:11:42.161Z,364
2017-08-14T07:12:42.422Z,364
2017-08-14T07:13:42.117Z,364
2017-08-14T07:14:43.086Z,364
2017-08-14T07:15:42.154Z,368
2017-08-14T07:16:43.234Z,368
2017-08-14T07:17:42.528Z,368
2017-08-14T07:18:42.854Z,368
2017-08-14T07:19:42.876Z,372
2017-08-14T07:20:42.687Z,376
2017-08-14T07:21:41.964Z,372
2017-08-14T07:22:43.028Z,376
2017-08-14T07:23:42.324Z,376
2017-08-14T07:24:43.038Z,380
2017-08-14T07:25:42.722Z,380
2017-08-14T07:26:42.718Z,380
2017-08-14T07:27:42.409Z,384
2017-08-14T07:28:43.168Z,384
2017-08-14T07:29:42.878Z,384
2017-08-14T07:30:42.882Z,384
2017-08-14T07:31:42.562Z,388
2017-08-14T07:32:42.520Z,388
2017-08-14T07:33:43.169Z,396
2017-08-14T07:34:42.674Z,396
2017-08-14T07:35:43.008Z,396
2017-08-14T07:36:43.319Z,396
2017-08-14T07:37:42.711Z,392
2017-08-14T07:38:43.490Z,392
2017-08-14T07:39:43.492Z,392
2017-08-14T07:40:43.502Z,392
2017-08-14T07:41:43.176Z,396
2017-08-14T07:42:43.188Z,396
2017-08-14T07:43:43.187Z,396
2017-08-14T07:44:42.865Z,396
2017-08-14T07:45:43.317Z,396
2017-08-14T07:46:43.318Z,396
2017-08-14T07:47:43.313Z,400
2017-08-14T07:48:43.018Z,400
2017-08-14T07:49:43.649Z,400
2017-08-14T07:50:43.644Z,400
2017-08-14T07:51:43.642Z,400
2017-08-14T07:52:43.645Z,400
2017-08-14T07:53:43.049Z,400
2017-08-14T07:54:43.688Z,408
2017-08-14T07:55:43.723Z,408
2017-08-14T07:56:43.739Z,408
2017-08-14T07:57:43.397Z,408
2017-08-14T07:58:43.711Z,408
2017-08-14T07:59:43.724Z,412
2017-08-14T08:00:43.421Z,408
2017-08-14T08:01:43.763Z,412
2017-08-14T08:02:43.473Z,408
2017-08-14T08:03:43.801Z,412
2017-08-14T08:04:43.509Z,412
2017-08-14T08:05:43.543Z,416
2017-08-14T08:06:43.554Z,420
2017-08-14T08:07:43.586Z,424
2017-08-14T08:08:43.918Z,428
2017-08-14T08:09:43.308Z,432
2017-08-14T08:10:43.657Z,432
2017-08-14T08:11:43.344Z,436
2017-08-14T08:12:43.690Z,440
2017-08-14T08:13:43.711Z,440
2017-08-14T08:14:43.770Z,448
2017-08-14T08:15:43.752Z,452
2017-08-14T08:16:43.775Z,456
2017-08-14T08:17:44.113Z,460
2017-08-14T08:18:43.506Z,464
2017-08-14T08:19:43.865Z,468
2017-08-14T08:20:44.205Z,472
2017-08-14T08:21:43.884Z,476
2017-08-14T08:22:43.908Z,480
2017-08-14T08:23:43.623Z,488
2017-08-14T08:24:44.286Z,488
2017-08-14T08:25:43.984Z,488
2017-08-14T08:26:44.311Z,492
2017-08-14T08:27:44.018Z,496
2017-08-14T08:28:44.377Z,504
2017-08-14T08:29:44.384Z,508
2017-08-14T08:30:44.399Z,504
2017-08-14T08:31:44.429Z,508
2017-08-14T08:32:44.458Z,512
2017-08-14T08:33:44.473Z,516
2017-08-14T08:34:44.195Z,528
2017-08-14T08:35:44.564Z,532
2017-08-14T08:36:44.572Z,544
2017-08-14T08:37:43.991Z,552
2017-08-14T08:38:44.582Z,552
2017-08-14T08:39:44.606Z,556
2017-08-14T08:40:44.648Z,560
2017-08-14T08:41:44.345Z,572
2017-08-14T08:42:44.677Z,584
2017-08-14T08:43:44.071Z,596
2017-08-14T08:44:44.517Z,604
2017-08-14T08:45:44.597Z,600
2017-08-14T08:46:44.139Z,600
2017-08-14T08:47:44.794Z,608
2017-08-14T08:48:44.819Z,616
2017-08-14T08:49:44.860Z,616
2017-08-14T08:50:44.551Z,620
2017-08-14T08:51:44.571Z,616
2017-08-14T08:52:44.273Z,624
2017-08-14T08:53:44.615Z,632
2017-08-14T08:54:44.639Z,640
2017-08-14T08:55:44.978Z,644
2017-08-14T08:56:44.690Z,648
2017-08-14T08:57:44.708Z,656
2017-08-14T08:58:45.072Z,668
2017-08-14T08:59:44.771Z,672
2017-08-14T09:00:45.107Z,672
2017-08-14T09:01:44.809Z,676
2017-08-14T09:02:45.149Z,680
2017-08-14T09:03:45.179Z,688
2017-08-14T09:04:45.421Z,700
2017-08-14T09:05:44.900Z,708
2017-08-14T09:06:45.293Z,728
2017-08-14T09:07:44.635Z,748
2017-08-14T09:08:45.333Z,788
2017-08-14T09:09:44.997Z,828
2017-08-14T09:10:45.147Z,876
2017-08-14T09:11:44.733Z,876
2017-08-14T09:12:45.570Z,836
2017-08-14T09:13:45.571Z,804
2017-08-14T09:14:45.574Z,800
2017-08-14T09:15:45.263Z,800
2017-08-14T09:16:45.285Z,820
2017-08-14T09:17:44.875Z,856
2017-08-14T09:18:45.568Z,840
2017-08-14T09:19:45.236Z,840
2017-08-14T09:20:45.599Z,852
2017-08-14T09:21:45.077Z,888
2017-08-14T09:22:44.997Z,928
2017-08-14T09:23:45.024Z,976
2017-08-14T09:24:45.363Z,964
2017-08-14T09:25:45.379Z,1076
2017-08-14T09:26:45.402Z,1488
2017-08-14T09:27:45.466Z,1552
2017-08-14T09:28:45.455Z,1468
2017-08-14T09:29:45.491Z,1536
2017-08-14T09:30:45.828Z,1328
2017-08-14T09:31:45.530Z,1116
2017-08-14T09:32:45.558Z,1024
2017-08-14T09:33:45.584Z,1188
2017-08-14T09:34:45.924Z,1448
2017-08-14T09:35:45.315Z,1356
2017-08-14T09:36:45.370Z,1196
2017-08-14T09:37:45.680Z,1148
2017-08-14T09:38:45.797Z,1148
2017-08-14T09:39:45.420Z,1152
2017-08-14T09:40:46.082Z,1204
2017-08-14T09:41:45.779Z,1244
2017-08-14T09:42:45.490Z,1272
2017-08-14T09:43:45.514Z,1240
2017-08-14T09:44:45.862Z,1160
2017-08-14T09:45:45.880Z,1092
2017-08-14T09:46:46.222Z,1068
2017-08-14T09:47:45.941Z,772
2017-08-14T09:48:45.645Z,1020
2017-08-14T09:49:46.300Z,624
2017-08-14T09:50:46.331Z,1072
2017-08-14T09:51:46.080Z,1092
2017-08-14T09:52:46.067Z,1152
2017-08-14T09:53:45.774Z,1328
2017-08-14T09:54:45.795Z,1568
2017-08-14T09:55:46.453Z,1564
2017-08-14T09:56:46.487Z,1472
2017-08-14T09:57:46.190Z,1296
2017-08-14T09:58:45.899Z,1188
2017-08-14T09:59:46.567Z,1176
2017-08-14T10:00:46.744Z,1220
2017-08-14T10:01:45.984Z,1300
2017-08-14T10:02:46.006Z,1448
2017-08-14T10:03:46.346Z,1508
2017-08-14T10:04:46.377Z,1508
2017-08-14T10:05:46.401Z,1492
2017-08-14T10:06:46.428Z,1496
2017-08-14T10:07:46.139Z,1432
2017-08-14T10:08:46.793Z,1356
2017-08-14T10:09:46.507Z,1320
2017-08-14T10:10:46.539Z,1328
2017-08-14T10:11:46.243Z,1384
2017-08-14T10:12:46.900Z,1140
2017-08-14T10:13:46.934Z,1180
2017-08-14T10:14:46.531Z,1520
2017-08-14T10:15:46.354Z,1468
2017-08-14T10:16:46.374Z,1552
2017-08-14T10:17:46.402Z,1700
2017-08-14T10:18:46.437Z,1828
2017-08-14T10:19:47.093Z,1760
2017-08-14T10:20:46.479Z,1512
2017-08-14T10:21:46.513Z,1348
2017-08-14T10:22:47.256Z,1292
2017-08-14T10:23:46.878Z,1292
2017-08-14T10:24:46.905Z,1320
2017-08-14T10:25:46.618Z,1292
2017-08-14T10:26:46.963Z,1400
2017-08-14T10:27:46.991Z,1464
2017-08-14T10:28:47.018Z,1492
2017-08-14T10:29:47.352Z,1568
2017-08-14T10:30:47.389Z,1808
2017-08-14T10:31:47.416Z,1936
2017-08-14T10:32:47.125Z,1952
2017-08-14T10:33:47.467Z,1912
2017-08-14T10:34:47.504Z,1684
2017-08-14T10:35:47.520Z,1528
2017-08-14T10:36:46.919Z,1488
2017-08-14T10:37:47.265Z,1496
2017-08-14T10:38:47.293Z,1524
2017-08-14T10:39:47.003Z,1680
2017-08-14T10:40:47.349Z,1908
2017-08-14T10:41:47.776Z,1944
2017-08-14T10:42:47.405Z,1864
2017-08-14T10:43:47.426Z,1724
2017-08-14T10:44:47.771Z,1604
2017-08-14T10:45:47.912Z,1580
2017-08-14T10:46:47.911Z,1548
2017-08-14T10:47:47.937Z,1544
2017-08-14T10:48:47.566Z,1552
2017-08-14T10:49:47.934Z,1544
2017-08-14T10:50:47.389Z,1548
2017-08-14T10:51:47.650Z,1556
2017-08-14T10:52:47.708Z,1560
2017-08-14T10:53:47.710Z,1556
2017-08-14T10:54:47.730Z,1580
2017-08-14T10:55:47.762Z,1616
2017-08-14T10:56:47.790Z,1604
2017-08-14T10:57:47.823Z,1580
2017-08-14T10:58:48.165Z,1576
2017-08-14T10:59:47.875Z,1588
2017-08-14T11:00:47.601Z,1612
2017-08-14T11:01:47.931Z,1648
2017-08-14T11:02:48.284Z,1756
2017-08-14T11:03:47.983Z,1960
2017-08-14T11:04:48.015Z,2320
2017-08-14T11:05:47.730Z,2740
2017-08-14T11:06:48.401Z,2900
2017-08-14T11:07:47.793Z,2716
2017-08-14T11:08:47.917Z,2428
2017-08-14T11:09:48.162Z,2168
2017-08-14T11:10:47.881Z,2076
2017-08-14T11:11:48.218Z,2004
2017-08-14T11:12:48.560Z,1944
2017-08-14T11:13:48.368Z,1884
2017-08-14T11:14:48.311Z,2100
2017-08-14T11:15:48.644Z,2480
2017-08-14T11:16:48.708Z,2712
2017-08-14T11:17:48.392Z,2756
2017-08-14T11:18:48.426Z,2808
2017-08-14T11:19:48.138Z,2948
2017-08-14T11:20:47.841Z,3184
2017-08-14T11:21:48.529Z,3496
2017-08-14T11:22:48.541Z,3832
2017-08-14T11:23:48.569Z,2912
2017-08-14T11:24:48.623Z,2028
2017-08-14T11:25:48.942Z,1788
2017-08-14T11:26:48.345Z,1632
2017-08-14T11:27:48.998Z,1112
2017-08-14T11:28:49.040Z,940
2017-08-14T11:29:49.072Z,1088
2017-08-14T11:30:48.774Z,1076
2017-08-14T11:31:48.484Z,1044
2017-08-14T11:32:49.138Z,1132
2017-08-14T11:33:49.175Z,1060
2017-08-14T11:34:49.210Z,1008
2017-08-14T11:35:49.365Z,1032
2017-08-14T11:36:48.650Z,1196
2017-08-14T11:37:48.979Z,1324
2017-08-14T11:38:49.327Z,1400
2017-08-14T11:39:49.362Z,1520
2017-08-14T11:40:49.378Z,1724
2017-08-14T11:41:49.410Z,1840
2017-08-14T11:42:49.467Z,1448
2017-08-14T11:43:49.160Z,1456
2017-08-14T11:44:49.642Z,1512
2017-08-14T11:45:49.655Z,2096
2017-08-14T11:46:48.929Z,2876
2017-08-14T11:47:49.271Z,2904
2017-08-14T11:48:49.414Z,3092
2017-08-14T11:49:49.646Z,3292
2017-08-14T11:50:49.361Z,3400
2017-08-14T11:51:49.418Z,3344
2017-08-14T11:52:49.934Z,3264
2017-08-14T11:53:49.768Z,3188
2017-08-14T11:54:49.480Z,2936
2017-08-14T11:55:49.823Z,2656
2017-08-14T11:56:49.228Z,2448
2017-08-14T11:57:49.570Z,2488
2017-08-14T11:58:49.603Z,2864
2017-08-14T11:59:49.315Z,3192
2017-08-14T12:00:49.974Z,3568
2017-08-14T12:01:49.689Z,3724
2017-08-14T12:02:50.053Z,3868
2017-08-14T12:03:49.800Z,3968
2017-08-14T12:04:49.980Z,3836
2017-08-14T12:05:49.816Z,3428
2017-08-14T12:06:49.840Z,2968
2017-08-14T12:07:49.568Z,2636
2017-08-14T12:08:49.815Z,2468
2017-08-14T12:09:49.928Z,2336
2017-08-14T12:10:50.285Z,2272
2017-08-14T12:11:50.315Z,2328
2017-08-14T12:12:50.041Z,2356
2017-08-14T12:13:50.495Z,2424
2017-08-14T12:14:49.810Z,2380
2017-08-14T12:15:49.816Z,2228
2017-08-14T12:16:50.456Z,2312
2017-08-14T12:17:50.681Z,2460
2017-08-14T12:18:50.203Z,2536
2017-08-14T12:19:50.548Z,2548
2017-08-14T12:20:49.951Z,2848
2017-08-14T12:21:50.616Z,2780
2017-08-14T12:22:50.326Z,2656
2017-08-14T12:23:50.529Z,2480
2017-08-14T12:24:50.852Z,2252
2017-08-14T12:25:50.510Z,2204
2017-08-14T12:26:50.450Z,2180
2017-08-14T12:27:50.876Z,2180
2017-08-14T12:28:50.875Z,2220
2017-08-14T12:29:50.874Z,2424
2017-08-14T12:30:50.592Z,2496
2017-08-14T12:31:50.672Z,2504
2017-08-14T12:32:50.000Z,2436
2017-08-14T12:33:50.346Z,2384
2017-08-14T12:34:51.011Z,2208
2017-08-14T12:35:50.520Z,1988
2017-08-14T12:36:50.752Z,1920
2017-08-14T12:37:50.780Z,1920
2017-08-14T12:38:50.902Z,1868
2017-08-14T12:39:50.529Z,1908
2017-08-14T12:40:51.196Z,1920
2017-08-14T12:41:51.227Z,1928
2017-08-14T12:42:51.255Z,1092
2017-08-14T12:43:50.654Z,1220
2017-08-14T12:44:51.317Z,1824
2017-08-14T12:45:50.711Z,1916
2017-08-14T12:46:51.376Z,1948
2017-08-14T12:47:51.403Z,1992
2017-08-14T12:48:51.440Z,2060
2017-08-14T12:49:51.149Z,2120
2017-08-14T12:50:51.513Z,2284
2017-08-14T12:51:51.556Z,2468
2017-08-14T12:52:51.568Z,2472
2017-08-14T12:53:51.328Z,2736
2017-08-14T12:54:51.300Z,2848
2017-08-14T12:55:51.656Z,2856
2017-08-14T12:56:51.362Z,2820
2017-08-14T12:57:51.397Z,2812
2017-08-14T12:58:51.743Z,1712
2017-08-14T12:59:51.772Z,1492
2017-08-14T13:00:51.817Z,1356
2017-08-14T13:01:51.522Z,1296
2017-08-14T13:02:51.864Z,1408
2017-08-14T13:03:51.910Z,2064
2017-08-14T13:04:51.615Z,1588
2017-08-14T13:05:51.957Z,1988
2017-08-14T13:06:51.680Z,1296
2017-08-14T13:07:52.027Z,1432
2017-08-14T13:08:51.739Z,1696
2017-08-14T13:09:52.217Z,2136
2017-08-14T13:10:52.122Z,2580
2017-08-14T13:11:51.837Z,2576
2017-08-14T13:12:52.193Z,2600
2017-08-14T13:13:52.210Z,2776
2017-08-14T13:14:52.377Z,3108
2017-08-14T13:15:51.960Z,3328
2017-08-14T13:16:52.364Z,3312
2017-08-14T13:17:52.147Z,3404
2017-08-14T13:18:52.143Z,3440
2017-08-14T13:19:52.176Z,3312
2017-08-14T13:20:52.122Z,3148
2017-08-14T13:21:52.650Z,2952
2017-08-14T13:22:52.825Z,2576
2017-08-14T13:23:52.700Z,2436
2017-08-14T13:24:51.930Z,2420
2017-08-14T13:25:52.103Z,2404
2017-08-14T13:26:52.620Z,2372
2017-08-14T13:27:52.334Z,2336
2017-08-14T13:28:52.485Z,2300
2017-08-14T13:29:52.710Z,2056
2017-08-14T13:30:52.200Z,2220
2017-08-14T13:31:52.461Z,2196
2017-08-14T13:32:52.504Z,2100
2017-08-14T13:33:52.537Z,2052
2017-08-14T13:34:52.235Z,2076
2017-08-14T13:35:52.587Z,2104
2017-08-14T13:36:52.934Z,2084
2017-08-14T13:37:52.346Z,2088
2017-08-14T13:38:52.688Z,2040
2017-08-14T13:39:53.029Z,1740
2017-08-14T13:40:52.766Z,1276
2017-08-14T13:41:52.777Z,1500
2017-08-14T13:42:52.809Z,1940
2017-08-14T13:43:52.527Z,2184
2017-08-14T13:44:52.870Z,2408
2017-08-14T13:45:53.216Z,2496
2017-08-14T13:46:52.937Z,2576
2017-08-14T13:47:53.284Z,2332
2017-08-14T13:48:53.311Z,1972
2017-08-14T13:49:53.342Z,2432
2017-08-14T13:50:53.380Z,2376
2017-08-14T13:51:53.406Z,2376
2017-08-14T13:52:53.438Z,2380
2017-08-14T13:53:53.535Z,2392